Time;durP1;ratioP1;P1;durP2;ratioP2;P2;SDS_P1;SDS_P2;PMS_P1;PMS_P2;Temp;Humidity;BMP_temperature;BMP_pressure;BME280_temperature;BME280_humidity;BME280_pressure;Samples;Min_cycle;Max_cycle;Signal;HPM_P1;HPM_P2
2022/04/20 00:02:15;;;;;;;22.10;20.90;;;;;;;;;;5016983;28;20455;-85
2022/04/20 00:04:42;;;;;;;22.50;21.20;;;;;;;;;;5017469;28;20805;-85
2022/04/20 00:07:10;;;;;;;22.80;21.50;;;;;;;;;;5017333;28;20433;-85
2022/04/20 00:09:39;;;;;;;22.50;21.30;;;;;;;;;;5016833;28;21033;-85
2022/04/20 00:12:07;;;;;;;22.60;21.30;;;;;;;;;;5016994;28;20994;-86
2022/04/20 00:14:34;;;;;;;22.30;21.00;;;;;;;;;;5017431;28;20492;-86
2022/04/20 00:17:02;;;;;;;22.20;21.00;;;;;;;;;;5016182;28;20452;-84
2022/04/20 00:19:29;;;;;;;23.27;21.87;;;;;;;;;;5017439;28;20911;-85
2022/04/20 00:21:56;;;;;;;23.20;21.93;;;;;;;;;;5019237;28;20441;-86
2022/04/20 00:24:24;;;;;;;23.83;22.33;;;;;;;;;;5019044;28;20917;-85
2022/04/20 00:26:53;;;;;;;22.80;21.50;;;;;;;;;;5017054;28;20878;-86
2022/04/20 00:29:20;;;;;;;23.40;22.10;;;;;;;;;;5016832;28;20448;-85
2022/04/20 00:31:47;;;;;;;22.80;21.60;;;;;;;;;;5017230;28;20419;-86
2022/04/20 00:34:15;;;;;;;23.13;21.60;;;;;;;;;;5016638;28;20516;-85
2022/04/20 00:36:42;;;;;;;22.87;21.67;;;;;;;;;;5016508;28;20424;-85
2022/04/20 00:39:09;;;;;;;22.80;21.50;;;;;;;;;;5016940;28;20408;-85
2022/04/20 00:41:37;;;;;;;22.43;21.13;;;;;;;;;;5015421;28;20992;-84
2022/04/20 00:44:06;;;;;;;23.13;21.83;;;;;;;;;;5016605;28;20885;-85
2022/04/20 00:46:34;;;;;;;22.37;21.07;;;;;;;;;;5015675;28;20944;-85
2022/04/20 00:49:01;;;;;;;22.37;21.07;;;;;;;;;;5015126;28;20453;-86
2022/04/20 00:51:30;;;;;;;21.60;20.50;;;;;;;;;;5016159;28;20429;-85
2022/04/20 00:54:00;;;;;;;22.13;20.73;;;;;;;;;;5016220;28;20494;-86
2022/04/20 00:56:27;;;;;;;22.03;20.83;;;;;;;;;;5016390;28;20899;-85
2022/04/20 00:58:55;;;;;;;22.53;21.23;;;;;;;;;;5015986;28;20404;-85
2022/04/20 01:01:26;;;;;;;22.53;21.33;;;;;;;;;;5015788;28;20488;-84
2022/04/20 01:03:54;;;;;;;23.13;21.83;;;;;;;;;;5016407;28;20420;-86
2022/04/20 01:06:22;;;;;;;22.80;21.50;;;;;;;;;;5015737;28;21205;-85
2022/04/20 01:08:49;;;;;;;22.47;21.00;;;;;;;;;;5014991;28;20763;-86
2022/04/20 01:11:17;;;;;;;22.53;21.13;;;;;;;;;;5016102;28;20493;-85
2022/04/20 01:13:44;;;;;;;23.07;21.77;;;;;;;;;;5016017;28;20441;-85
2022/04/20 01:16:12;;;;;;;22.80;21.40;;;;;;;;;;5016003;28;20445;-85
2022/04/20 01:18:46;;;;;;;23.37;22.07;;;;;;;;;;5015883;28;20404;-85
2022/04/20 01:21:15;;;;;;;22.93;21.70;;;;;;;;;;5015817;28;20781;-86
2022/04/20 01:23:43;;;;;;;22.07;20.80;;;;;;;;;;5015629;28;20453;-85
2022/04/20 01:26:10;;;;;;;22.70;21.40;;;;;;;;;;5015624;28;20488;-85
2022/04/20 01:28:38;;;;;;;23.80;22.27;;;;;;;;;;5015492;28;20501;-85
2022/04/20 01:31:06;;;;;;;22.57;21.27;;;;;;;;;;5015997;28;20466;-86
2022/04/20 01:33:34;;;;;;;22.60;21.30;;;;;;;;;;5015658;28;20448;-86
2022/04/20 01:36:01;;;;;;;22.50;21.30;;;;;;;;;;5015376;28;20489;-86
2022/04/20 01:38:30;;;;;;;23.23;21.73;;;;;;;;;;5015337;28;20434;-86
2022/04/20 01:40:57;;;;;;;22.20;21.00;;;;;;;;;;5015740;28;20412;-86
2022/04/20 01:43:25;;;;;;;22.93;21.40;;;;;;;;;;5014194;28;20920;-86
2022/04/20 01:45:52;;;;;;;22.37;21.07;;;;;;;;;;5015441;28;20508;-86
2022/04/20 01:48:20;;;;;;;22.33;21.13;;;;;;;;;;5015401;28;20440;-86
2022/04/20 01:53:33;;;;;;;22.50;21.20;;;;;;;;;;5015345;28;20619;-83
2022/04/20 01:56:03;;;;;;;23.27;21.97;;;;;;;;;;5015252;28;20476;-86
2022/04/20 01:58:30;;;;;;;24.33;22.83;;;;;;;;;;5014540;28;20445;-86
2022/04/20 02:00:57;;;;;;;23.00;21.70;;;;;;;;;;5015035;28;20467;-85
2022/04/20 02:03:24;;;;;;;22.97;21.47;;;;;;;;;;5014951;28;20506;-86
2022/04/20 02:05:51;;;;;;;23.37;21.87;;;;;;;;;;5014833;28;20938;-86
2022/04/20 02:08:19;;;;;;;22.70;21.40;;;;;;;;;;5015068;28;20448;-85
2022/04/20 02:10:47;;;;;;;22.27;21.00;;;;;;;;;;5014711;28;20415;-86
2022/04/20 02:13:15;;;;;;;22.60;21.30;;;;;;;;;;5014890;28;20426;-85
2022/04/20 02:15:42;;;;;;;22.40;21.10;;;;;;;;;;5014545;28;20475;-85
2022/04/20 02:18:09;;;;;;;22.83;21.33;;;;;;;;;;5014946;28;20416;-85
2022/04/20 02:20:37;;;;;;;23.20;21.80;;;;;;;;;;5014657;28;20453;-85
2022/04/20 02:23:04;;;;;;;22.50;21.20;;;;;;;;;;5014845;28;20424;-86
2022/04/20 02:25:31;;;;;;;22.97;21.57;;;;;;;;;;5014678;28;20427;-86
2022/04/20 02:28:00;;;;;;;22.67;21.37;;;;;;;;;;5014923;28;20958;-86
2022/04/20 02:30:28;;;;;;;22.43;21.13;;;;;;;;;;5014446;28;20441;-86
2022/04/20 02:32:55;;;;;;;22.63;21.33;;;;;;;;;;5014721;28;20441;-86
2022/04/20 02:35:22;;;;;;;22.63;21.27;;;;;;;;;;5014542;28;20489;-85
2022/04/20 02:37:50;;;;;;;22.30;21.10;;;;;;;;;;5014621;28;20441;-86
2022/04/20 02:40:17;;;;;;;28.00;21.50;;;;;;;;;;5014771;28;20441;-86
2022/04/20 02:42:45;;;;;;;22.43;21.13;;;;;;;;;;5014907;28;20408;-86
2022/04/20 02:45:14;;;;;;;22.60;21.30;;;;;;;;;;5014783;28;20448;-86
2022/04/20 02:47:41;;;;;;;23.13;21.80;;;;;;;;;;5014192;28;20441;-86
2022/04/20 02:50:09;;;;;;;23.33;21.93;;;;;;;;;;5014891;28;20433;-86
2022/04/20 02:52:36;;;;;;;22.30;21.10;;;;;;;;;;5014799;28;20445;-86
2022/04/20 02:55:04;;;;;;;22.40;21.10;;;;;;;;;;5014606;28;20450;-85
2022/04/20 02:57:31;;;;;;;22.57;20.87;;;;;;;;;;5014771;28;20437;-86
2022/04/20 02:59:58;;;;;;;23.00;21.60;;;;;;;;;;5014160;28;20443;-86
2022/04/20 03:02:27;;;;;;;22.63;21.33;;;;;;;;;;5013877;28;20547;-86
2022/04/20 03:04:54;;;;;;;22.20;20.90;;;;;;;;;;5013997;28;20966;-86
2022/04/20 03:07:22;;;;;;;22.20;20.93;;;;;;;;;;5014102;28;20457;-86
2022/04/20 03:09:50;;;;;;;21.90;20.60;;;;;;;;;;5012744;28;20424;-85
2022/04/20 03:12:17;;;;;;;22.60;21.40;;;;;;;;;;5014413;28;20807;-86
2022/04/20 03:14:44;;;;;;;22.57;21.13;;;;;;;;;;5014155;28;20485;-86
2022/04/20 03:17:12;;;;;;;22.53;21.13;;;;;;;;;;5014188;28;20445;-86
2022/04/20 03:19:40;;;;;;;22.43;21.03;;;;;;;;;;5014521;28;20437;-86
2022/04/20 03:22:08;;;;;;;22.87;21.50;;;;;;;;;;5012805;28;20423;-86
2022/04/20 03:24:35;;;;;;;22.50;21.20;;;;;;;;;;5014033;28;20420;-86
2022/04/20 03:27:02;;;;;;;22.30;21.00;;;;;;;;;;5013825;28;20420;-85
2022/04/20 03:29:30;;;;;;;21.83;20.63;;;;;;;;;;5014062;28;20433;-86
2022/04/20 03:31:57;;;;;;;23.30;21.90;;;;;;;;;;5014032;28;20448;-86
2022/04/20 03:34:25;;;;;;;23.33;21.83;;;;;;;;;;5012471;28;20441;-87
2022/04/20 03:36:53;;;;;;;23.10;21.80;;;;;;;;;;5013879;28;20846;-84
2022/04/20 03:39:21;;;;;;;23.13;21.73;;;;;;;;;;5013738;28;20932;-86
2022/04/20 03:41:48;;;;;;;23.27;21.67;;;;;;;;;;5014134;28;20451;-86
2022/04/20 03:44:15;;;;;;;22.50;21.30;;;;;;;;;;5013966;28;20441;-86
2022/04/20 03:46:43;;;;;;;22.83;21.43;;;;;;;;;;5013516;28;21001;-86
2022/04/20 03:49:11;;;;;;;22.13;20.93;;;;;;;;;;5013813;28;20519;-86
2022/04/20 03:51:39;;;;;;;22.87;21.47;;;;;;;;;;5013467;28;20480;-85
2022/04/20 03:54:08;;;;;;;22.40;21.00;;;;;;;;;;5012462;28;20427;-86
2022/04/20 03:59:16;;;;;;;23.37;21.77;;;;;;;;;;5013165;28;20495;-87
2022/04/20 04:01:44;;;;;;;22.37;21.17;;;;;;;;;;5013295;28;20488;-86
2022/04/20 04:04:11;;;;;;;22.90;21.50;;;;;;;;;;5013479;28;21009;-86
2022/04/20 04:06:39;;;;;;;22.70;21.20;;;;;;;;;;5012583;28;20453;-86
2022/04/20 04:09:07;;;;;;;23.10;21.60;;;;;;;;;;5013837;28;20568;-86
2022/04/20 04:11:35;;;;;;;23.43;22.03;;;;;;;;;;5013713;28;20417;-86
2022/04/20 04:14:02;;;;;;;23.00;21.70;;;;;;;;;;5013494;28;20540;-86
2022/04/20 04:16:30;;;;;;;22.93;21.53;;;;;;;;;;5013254;28;20976;-86
2022/04/20 04:18:57;;;;;;;22.87;21.47;;;;;;;;;;5013657;28;20544;-86
2022/04/20 04:21:25;;;;;;;22.70;21.40;;;;;;;;;;5015580;28;20437;-86
2022/04/20 04:23:52;;;;;;;23.30;21.90;;;;;;;;;;5016869;28;20691;-86
2022/04/20 04:26:21;;;;;;;22.57;21.17;;;;;;;;;;5016894;28;20445;-86
2022/04/20 04:28:48;;;;;;;22.97;21.67;;;;;;;;;;5031057;28;20407;-96
2022/04/20 04:31:19;;;;;;;22.63;21.30;;;;;;;;;;5318898;22;21685;-89
2022/04/20 04:33:46;;;;;;;22.73;21.47;;;;;;;;;;5040094;28;20441;-96
2022/04/20 04:36:15;;;;;;;23.35;22.02;;;;;;;;;;5039829;28;20468;-96
2022/04/20 04:38:42;;;;;;;23.60;22.00;;;;;;;;;;5039507;28;20209;-96
2022/04/20 04:41:12;;;;;;;22.57;21.37;;;;;;;;;;5040998;28;20171;-96
2022/04/20 04:43:41;;;;;;;23.05;21.65;;;;;;;;;;5041291;28;20433;-95
2022/04/20 04:48:53;;;;;;;23.20;21.83;;;;;;;;;;5040383;28;20193;-96
2022/04/20 04:53:53;;;;;;;22.77;21.48;;;;;;;;;;5842742;22;20510;-96
2022/04/20 05:48:18;;;;;;;23.13;21.73;;;;;;;;;;6124688;22;20411;-96
2022/04/20 05:50:48;;;;;;;22.80;21.40;;;;;;;;;;5034881;28;20407;-90
2022/04/20 06:08:51;;;;;;;22.67;21.47;;;;;;;;;;5397954;22;20471;-96
2022/04/20 06:11:19;;;;;;;22.33;20.90;;;;;;;;;;5054111;28;20425;-96
2022/04/20 06:13:46;;;;;;;23.03;21.63;;;;;;;;;;5057425;28;20440;-96
2022/04/20 06:16:13;;;;;;;22.90;21.60;;;;;;;;;;5057796;23;20515;-96
2022/04/20 06:18:41;;;;;;;23.20;21.60;;;;;;;;;;5050453;28;20515;-96
2022/04/20 06:21:09;;;;;;;22.87;21.50;;;;;;;;;;5051933;28;20408;-96
2022/04/20 06:23:36;;;;;;;23.60;22.20;;;;;;;;;;5049296;28;20447;-96
2022/04/20 06:26:05;;;;;;;23.00;21.70;;;;;;;;;;5050599;28;20410;-96
2022/04/20 06:28:33;;;;;;;24.23;22.93;;;;;;;;;;5055421;22;20460;-96
2022/04/20 06:31:04;;;;;;;23.43;22.00;;;;;;;;;;5057549;28;20468;-96
2022/04/20 06:33:32;;;;;;;23.03;21.73;;;;;;;;;;5058966;28;20391;-91
2022/04/20 06:36:00;;;;;;;23.40;22.10;;;;;;;;;;5109943;22;20497;-94
2022/04/20 06:41:33;;;;;;;22.43;21.10;;;;;;;;;;5681409;22;20449;-96
2022/04/20 06:44:00;;;;;;;23.20;21.90;;;;;;;;;;5054442;28;20472;-96
2022/04/20 06:46:29;;;;;;;23.40;22.10;;;;;;;;;;5052295;28;20913;-96
2022/04/20 06:48:57;;;;;;;23.00;21.67;;;;;;;;;;5056130;28;20409;-96
2022/04/20 06:51:24;;;;;;;24.27;22.73;;;;;;;;;;5050701;28;20484;-96
2022/04/20 06:59:24;;;;;;;24.17;22.77;;;;;;;;;;5407695;22;20553;-91
2022/04/20 07:01:52;;;;;;;24.10;22.60;;;;;;;;;;5034593;28;20797;-93
2022/04/20 07:04:19;;;;;;;24.00;22.50;;;;;;;;;;5033788;28;20461;-92
2022/04/20 07:06:46;;;;;;;23.80;22.20;;;;;;;;;;5034209;28;20456;-92
2022/04/20 07:09:13;;;;;;;24.50;23.00;;;;;;;;;;5034951;28;20977;-94
2022/04/20 07:11:42;;;;;;;24.53;22.83;;;;;;;;;;5034364;28;20915;-94
2022/04/20 07:14:10;;;;;;;23.60;22.30;;;;;;;;;;5034081;28;20415;-94
2022/04/20 07:16:37;;;;;;;23.67;22.27;;;;;;;;;;5034222;28;20661;-93
2022/04/20 07:19:04;;;;;;;22.93;21.53;;;;;;;;;;5034186;28;20432;-93
2022/04/20 07:21:32;;;;;;;24.00;22.60;;;;;;;;;;5033935;28;20440;-92
2022/04/20 07:23:59;;;;;;;24.17;22.63;;;;;;;;;;5034351;28;20860;-92
2022/04/20 07:26:27;;;;;;;24.20;22.80;;;;;;;;;;5033827;28;20411;-93
2022/04/20 07:28:56;;;;;;;23.07;21.70;;;;;;;;;;5033942;28;20448;-93
2022/04/20 07:31:23;;;;;;;23.17;21.77;;;;;;;;;;5032062;28;20487;-90
2022/04/20 07:36:21;;;;;;;24.70;23.00;;;;;;;;;;5014821;28;21051;-96
2022/04/20 07:38:49;;;;;;;25.10;23.57;;;;;;;;;;5016638;28;20423;-94
2022/04/20 07:41:16;;;;;;;25.10;23.30;;;;;;;;;;5015037;28;20445;-96
2022/04/20 07:43:43;;;;;;;24.90;23.33;;;;;;;;;;5035468;22;20478;-90
2022/04/20 07:46:16;;;;;;;24.17;22.67;;;;;;;;;;5043641;28;20429;-89
2022/04/20 07:48:43;;;;;;;24.10;22.60;;;;;;;;;;5033573;28;20415;-92
2022/04/20 07:51:12;;;;;;;24.70;23.20;;;;;;;;;;5033873;28;20910;-88
2022/04/20 07:53:40;;;;;;;24.40;22.90;;;;;;;;;;5035342;28;20797;-89
2022/04/20 07:56:08;;;;;;;24.90;23.30;;;;;;;;;;5037715;28;20451;-88
2022/04/20 07:58:35;;;;;;;24.30;22.70;;;;;;;;;;5034290;28;20487;-86
2022/04/20 08:01:03;;;;;;;23.93;22.43;;;;;;;;;;5035815;28;20422;-90
2022/04/20 08:03:31;;;;;;;24.43;22.73;;;;;;;;;;5018455;28;20412;-90
2022/04/20 08:06:00;;;;;;;24.53;22.83;;;;;;;;;;5017868;28;20427;-90
2022/04/20 08:08:27;;;;;;;24.50;22.80;;;;;;;;;;5017347;28;20480;-90
2022/04/20 08:10:55;;;;;;;24.03;22.50;;;;;;;;;;5016057;28;20426;-90
2022/04/20 08:16:07;;;;;;;24.13;22.70;;;;;;;;;;5017402;28;20468;-90
2022/04/20 08:18:35;;;;;;;24.47;22.77;;;;;;;;;;5017500;28;20448;-92
2022/04/20 08:21:03;;;;;;;24.70;23.20;;;;;;;;;;5018131;28;20455;-94
2022/04/20 08:23:32;;;;;;;25.27;23.57;;;;;;;;;;5018522;28;20460;-92
2022/04/20 08:26:00;;;;;;;24.43;22.90;;;;;;;;;;5016564;28;20551;-93
2022/04/20 08:28:27;;;;;;;24.70;23.03;;;;;;;;;;5017996;28;20534;-90
2022/04/20 08:30:55;;;;;;;24.50;23.00;;;;;;;;;;5017694;28;20408;-85
2022/04/20 08:33:22;;;;;;;24.17;22.50;;;;;;;;;;5036245;28;20738;-86
2022/04/20 08:35:52;;;;;;;25.70;24.00;;;;;;;;;;5034578;28;20475;-91
2022/04/20 08:38:19;;;;;;;25.90;24.30;;;;;;;;;;5035665;28;20445;-84
2022/04/20 08:40:47;;;;;;;25.47;23.53;;;;;;;;;;5038515;28;20437;-92
2022/04/20 08:49:12;;;;;;;24.13;22.73;;;;;;;;;;5324416;23;20520;-83
2022/04/20 08:54:26;;;;;;;24.77;23.27;;;;;;;;;;4995924;28;20965;-82
2022/04/20 08:59:38;;;;;;;24.50;22.90;;;;;;;;;;4976275;28;20442;-78
2022/04/20 09:02:06;;;;;;;24.73;23.33;;;;;;;;;;4978257;28;20517;-79
2022/04/20 09:04:33;;;;;;;25.00;23.40;;;;;;;;;;4976120;28;20434;-79
2022/04/20 09:07:03;;;;;;;25.33;23.83;;;;;;;;;;4981724;28;20440;-82
2022/04/20 09:09:31;;;;;;;25.07;23.53;;;;;;;;;;4996087;28;20775;-80
2022/04/20 09:11:59;;;;;;;24.67;23.17;;;;;;;;;;4993786;28;20477;-82
2022/04/20 09:14:27;;;;;;;24.00;22.50;;;;;;;;;;4993882;28;20420;-82
2022/04/20 09:16:55;;;;;;;24.70;23.10;;;;;;;;;;4995147;28;20486;-82
2022/04/20 09:19:25;;;;;;;24.70;23.30;;;;;;;;;;4994596;28;20508;-83
2022/04/20 09:21:52;;;;;;;23.47;22.07;;;;;;;;;;4980614;28;20497;-82
2022/04/20 09:24:21;;;;;;;24.10;22.57;;;;;;;;;;4971953;28;20451;-78
2022/04/20 09:26:52;;;;;;;23.87;22.43;;;;;;;;;;4967724;28;20500;-81
2022/04/20 09:29:19;;;;;;;23.57;22.10;;;;;;;;;;4995351;28;20750;-79
2022/04/20 09:31:47;;;;;;;24.50;22.90;;;;;;;;;;4983663;28;20491;-77
2022/04/20 09:34:34;;;;;;;23.93;22.53;;;;;;;;;;4975555;28;20446;-79
2022/04/20 09:37:12;;;;;;;24.10;22.70;;;;;;;;;;4975572;28;20814;-80
2022/04/20 09:39:40;;;;;;;24.80;23.03;;;;;;;;;;4975586;28;20542;-80
2022/04/20 09:42:09;;;;;;;24.13;22.63;;;;;;;;;;4988202;28;20444;-79
2022/04/20 09:44:39;;;;;;;24.90;23.30;;;;;;;;;;4982884;28;20467;-80
2022/04/20 09:49:58;;;;;;;24.23;22.83;;;;;;;;;;4969350;28;20876;-78
2022/04/20 09:52:26;;;;;;;24.40;22.77;;;;;;;;;;4992690;28;20470;-80
2022/04/20 09:54:56;;;;;;;25.43;23.67;;;;;;;;;;4978807;28;20466;-79
2022/04/20 09:57:24;;;;;;;24.40;22.90;;;;;;;;;;4994414;28;20481;-80
2022/04/20 09:59:58;;;;;;;26.53;24.77;;;;;;;;;;4984664;28;20426;-80
2022/04/20 10:02:27;;;;;;;25.00;23.30;;;;;;;;;;4975121;28;20447;-82
2022/04/20 10:04:55;;;;;;;25.80;23.90;;;;;;;;;;4975152;28;20785;-80
2022/04/20 10:07:22;;;;;;;24.97;23.07;;;;;;;;;;4975160;28;20455;-80
2022/04/20 10:09:49;;;;;;;24.63;23.07;;;;;;;;;;4975727;28;20453;-89
2022/04/20 10:12:19;;;;;;;25.40;23.70;;;;;;;;;;4976155;28;20439;-91
2022/04/20 10:17:37;;;;;;;23.80;22.30;;;;;;;;;;4974960;28;20502;-82
2022/04/20 10:20:06;;;;;;;25.40;23.70;;;;;;;;;;4974180;28;20854;-80
2022/04/20 10:22:33;;;;;;;24.20;22.60;;;;;;;;;;4974456;28;20455;-82
2022/04/20 10:25:01;;;;;;;25.30;23.77;;;;;;;;;;4974962;28;20442;-82
2022/04/20 10:27:35;;;;;;;24.67;23.00;;;;;;;;;;4989891;28;20530;-81
2022/04/20 10:30:07;;;;;;;24.73;23.10;;;;;;;;;;4974609;28;20439;-82
2022/04/20 10:32:39;;;;;;;23.93;22.53;;;;;;;;;;4974903;28;20439;-82
2022/04/20 10:35:07;;;;;;;24.47;22.87;;;;;;;;;;4974681;28;20429;-82
2022/04/20 10:37:35;;;;;;;25.00;23.40;;;;;;;;;;4974701;28;20495;-82
2022/04/20 10:40:15;;;;;;;24.90;23.10;;;;;;;;;;4974486;28;20476;-81
2022/04/20 10:42:44;;;;;;;23.73;22.23;;;;;;;;;;4975057;28;20471;-81
2022/04/20 10:45:12;;;;;;;24.20;22.70;;;;;;;;;;4974324;28;20413;-81
2022/04/20 10:47:40;;;;;;;24.23;22.73;;;;;;;;;;4974558;28;20481;-82
2022/04/20 10:50:12;;;;;;;24.73;23.27;;;;;;;;;;4973910;28;20461;-82
2022/04/20 10:52:40;;;;;;;23.87;22.37;;;;;;;;;;4974265;28;20446;-83
2022/04/20 10:55:09;;;;;;;24.07;22.77;;;;;;;;;;4974641;28;20413;-82
2022/04/20 10:57:37;;;;;;;25.33;23.63;;;;;;;;;;4973925;28;20593;-82
2022/04/20 11:00:23;;;;;;;25.00;23.50;;;;;;;;;;4974097;28;20444;-83
2022/04/20 11:02:52;;;;;;;24.87;23.33;;;;;;;;;;4974308;28;20957;-82
2022/04/20 11:05:21;;;;;;;24.10;22.60;;;;;;;;;;4973942;28;20504;-82
2022/04/20 11:08:02;;;;;;;24.40;22.60;;;;;;;;;;4974264;28;20486;-82
2022/04/20 11:10:29;;;;;;;24.10;22.60;;;;;;;;;;4974162;28;20435;-82
2022/04/20 11:19:02;;;;;;;24.20;22.57;;;;;;;;;;4973898;28;20405;-82
2022/04/20 11:21:30;;;;;;;24.50;23.00;;;;;;;;;;4974067;28;20444;-82
2022/04/20 11:23:58;;;;;;;25.60;24.10;;;;;;;;;;4974188;28;20534;-82
2022/04/20 11:26:28;;;;;;;24.57;23.10;;;;;;;;;;4973999;28;20870;-83
2022/04/20 11:28:55;;;;;;;24.33;22.90;;;;;;;;;;4974132;28;20424;-83
2022/04/20 11:31:23;;;;;;;25.80;23.87;;;;;;;;;;4977843;28;20446;-83
2022/04/20 11:33:53;;;;;;;24.40;22.80;;;;;;;;;;4977948;28;20521;-82
2022/04/20 11:36:21;;;;;;;25.40;23.17;;;;;;;;;;4977474;28;20969;-83
2022/04/20 11:38:50;;;;;;;24.53;23.10;;;;;;;;;;4977637;28;20421;-84
2022/04/20 11:41:19;;;;;;;25.70;23.80;;;;;;;;;;4977705;28;20826;-83
2022/04/20 11:43:47;;;;;;;24.77;23.27;;;;;;;;;;4977552;28;20951;-82
2022/04/20 11:46:14;;;;;;;24.80;23.30;;;;;;;;;;4977835;28;20417;-82
2022/04/20 11:48:50;;;;;;;24.47;22.90;;;;;;;;;;4975692;28;20472;-84
2022/04/20 11:51:23;;;;;;;24.23;22.77;;;;;;;;;;4959204;28;20450;-96
2022/04/20 11:53:50;;;;;;;25.33;23.23;;;;;;;;;;4958298;29;20506;-81
2022/04/20 11:56:18;;;;;;;25.53;23.70;;;;;;;;;;4958336;28;20481;-81
2022/04/20 11:58:50;;;;;;;24.77;23.20;;;;;;;;;;4958176;28;20491;-81
2022/04/20 12:01:17;;;;;;;26.50;24.43;;;;;;;;;;4958267;29;20478;-84
2022/04/20 12:03:50;;;;;;;25.03;23.43;;;;;;;;;;4957978;29;20988;-82
2022/04/20 12:06:18;;;;;;;24.77;23.17;;;;;;;;;;4958416;29;20436;-83
2022/04/20 12:08:48;;;;;;;26.20;24.60;;;;;;;;;;4958357;29;20421;-81
2022/04/20 12:11:16;;;;;;;25.87;24.27;;;;;;;;;;4957917;29;20436;-83
2022/04/20 12:13:43;;;;;;;25.83;24.13;;;;;;;;;;4957928;29;20772;-79
2022/04/20 12:16:12;;;;;;;26.57;24.87;;;;;;;;;;4957571;29;20423;-79
2022/04/20 12:18:41;;;;;;;26.70;25.10;;;;;;;;;;4962853;28;20503;-79
2022/04/20 12:21:28;;;;;;;25.17;23.67;;;;;;;;;;4976759;28;20840;-79
2022/04/20 12:23:57;;;;;;;24.30;22.90;;;;;;;;;;4976662;28;20439;-79
2022/04/20 12:26:28;;;;;;;24.70;23.20;;;;;;;;;;4976980;28;20418;-79
2022/04/20 12:28:59;;;;;;;25.53;23.63;;;;;;;;;;4977098;28;20429;-79
2022/04/20 12:31:27;;;;;;;24.53;23.03;;;;;;;;;;4976521;28;20910;-81
2022/04/20 12:34:01;;;;;;;24.80;23.20;;;;;;;;;;4976215;28;20490;-79
2022/04/20 12:36:31;;;;;;;25.47;23.80;;;;;;;;;;4976451;28;20508;-78
2022/04/20 12:39:00;;;;;;;25.23;23.70;;;;;;;;;;4976736;28;20549;-79
2022/04/20 12:41:38;;;;;;;24.80;23.30;;;;;;;;;;4975607;28;20421;-81
2022/04/20 12:44:20;;;;;;;24.73;23.17;;;;;;;;;;4976944;28;20477;-80
2022/04/20 12:46:48;;;;;;;25.37;23.87;;;;;;;;;;4968316;28;20466;-79
2022/04/20 12:49:23;;;;;;;24.00;22.60;;;;;;;;;;4976084;28;20504;-79
2022/04/20 12:51:51;;;;;;;24.33;22.90;;;;;;;;;;4976314;28;20417;-79
2022/04/20 12:54:25;;;;;;;24.30;22.80;;;;;;;;;;4976292;28;20417;-79
2022/04/20 13:02:22;;;;;;;24.13;22.67;;;;;;;;;;4976398;28;21362;-78
2022/04/20 13:04:49;;;;;;;24.00;22.30;;;;;;;;;;4975940;28;20834;-78
2022/04/20 13:07:17;;;;;;;24.43;22.90;;;;;;;;;;4976358;28;20889;-81
2022/04/20 13:09:45;;;;;;;24.43;22.73;;;;;;;;;;4975875;28;20494;-77
2022/04/20 13:12:13;;;;;;;23.23;21.83;;;;;;;;;;4976368;28;20418;-81
2022/04/20 13:14:41;;;;;;;23.50;22.20;;;;;;;;;;4976387;28;20892;-79
2022/04/20 13:17:09;;;;;;;24.30;22.90;;;;;;;;;;4976470;28;20473;-85
2022/04/20 13:19:37;;;;;;;23.70;22.20;;;;;;;;;;4976175;28;20465;-81
2022/04/20 13:22:05;;;;;;;23.67;22.20;;;;;;;;;;4976230;28;20421;-81
2022/04/20 13:30:04;;;;;;;24.40;22.80;;;;;;;;;;4976559;28;20477;-81
2022/04/20 13:32:32;;;;;;;26.83;24.50;;;;;;;;;;4975571;28;20426;-84
2022/04/20 13:34:59;;;;;;;25.33;23.63;;;;;;;;;;4976208;28;20439;-81
2022/04/20 13:37:27;;;;;;;24.57;23.17;;;;;;;;;;4976070;28;20464;-83
2022/04/20 13:39:55;;;;;;;25.33;23.93;;;;;;;;;;4975851;28;20409;-82
2022/04/20 13:42:24;;;;;;;26.43;24.83;;;;;;;;;;4975671;28;20490;-81
2022/04/20 13:44:51;;;;;;;25.20;23.60;;;;;;;;;;4976664;28;20459;-87
2022/04/20 13:47:19;;;;;;;25.90;24.40;;;;;;;;;;4977154;28;20787;-87
2022/04/20 13:49:46;;;;;;;26.10;24.50;;;;;;;;;;4975209;28;20591;-86
2022/04/20 13:52:13;;;;;;;25.80;24.10;;;;;;;;;;4976685;28;20984;-88
2022/04/20 13:54:41;;;;;;;24.60;23.10;;;;;;;;;;4976522;28;20420;-87
2022/04/20 13:57:08;;;;;;;24.90;23.40;;;;;;;;;;4976439;28;20469;-87
2022/04/20 13:59:37;;;;;;;25.37;23.87;;;;;;;;;;4976785;28;20422;-87
2022/04/20 14:02:05;;;;;;;24.90;23.33;;;;;;;;;;4976613;28;20468;-87
2022/04/20 14:04:32;;;;;;;24.37;22.97;;;;;;;;;;4976111;28;20417;-87
2022/04/20 14:06:59;;;;;;;24.13;22.60;;;;;;;;;;4976363;28;20414;-88
2022/04/20 14:09:27;;;;;;;23.73;22.43;;;;;;;;;;4976674;28;20509;-87
2022/04/20 14:11:55;;;;;;;23.67;22.20;;;;;;;;;;4975165;28;20530;-89
2022/04/20 14:14:22;;;;;;;23.63;22.30;;;;;;;;;;4976426;28;20484;-87
2022/04/20 14:16:52;;;;;;;22.80;21.30;;;;;;;;;;4974999;28;20417;-88
2022/04/20 14:19:19;;;;;;;23.00;21.70;;;;;;;;;;4975693;28;20449;-89
2022/04/20 14:21:47;;;;;;;22.70;21.40;;;;;;;;;;4976130;28;20417;-88
2022/04/20 14:24:14;;;;;;;24.13;22.73;;;;;;;;;;4975891;28;20414;-88
2022/04/20 14:32:15;;;;;;;23.53;22.03;;;;;;;;;;4976772;28;20441;-93
2022/04/20 14:34:42;;;;;;;23.87;22.57;;;;;;;;;;4975724;28;20458;-84
2022/04/20 14:37:10;;;;;;;23.37;22.00;;;;;;;;;;4975616;28;20433;-84
2022/04/20 14:39:38;;;;;;;22.57;21.17;;;;;;;;;;4975430;28;20536;-82
2022/04/20 14:42:06;;;;;;;23.13;21.70;;;;;;;;;;4975153;28;20421;-83
2022/04/20 14:44:35;;;;;;;24.17;22.60;;;;;;;;;;4975026;28;20455;-84
2022/04/20 14:47:03;;;;;;;24.20;22.67;;;;;;;;;;4975570;28;20457;-84
2022/04/20 14:49:32;;;;;;;23.33;21.73;;;;;;;;;;4975120;28;20490;-86
2022/04/20 14:52:00;;;;;;;24.40;22.87;;;;;;;;;;4975608;28;20428;-86
2022/04/20 14:54:28;;;;;;;25.23;23.73;;;;;;;;;;4974664;28;20447;-83
2022/04/20 14:56:55;;;;;;;25.10;23.50;;;;;;;;;;4975292;28;20496;-85
2022/04/20 14:59:23;;;;;;;23.57;22.13;;;;;;;;;;4974872;28;20985;-83
2022/04/20 15:01:50;;;;;;;24.03;22.63;;;;;;;;;;4975458;28;20418;-85
2022/04/20 15:04:18;;;;;;;24.60;23.10;;;;;;;;;;4974516;28;20738;-86
2022/04/20 15:06:50;;;;;;;23.37;22.07;;;;;;;;;;4975089;28;20422;-81
2022/04/20 15:09:17;;;;;;;23.90;22.30;;;;;;;;;;4975179;28;20497;-84
2022/04/20 15:11:45;;;;;;;23.83;22.53;;;;;;;;;;4975085;28;20425;-83
2022/04/20 15:14:13;;;;;;;25.33;23.73;;;;;;;;;;4975086;28;20448;-86
2022/04/20 15:16:41;;;;;;;24.07;22.67;;;;;;;;;;4974425;28;20516;-92
2022/04/20 15:19:11;;;;;;;23.93;22.43;;;;;;;;;;4975184;28;20959;-91
2022/04/20 15:21:38;;;;;;;25.00;23.40;;;;;;;;;;4975173;28;20916;-92
2022/04/20 15:24:08;;;;;;;25.17;23.47;;;;;;;;;;4975421;28;20447;-91
2022/04/20 15:26:36;;;;;;;24.77;23.13;;;;;;;;;;4975475;28;20418;-92
2022/04/20 15:29:03;;;;;;;25.57;23.70;;;;;;;;;;4975288;28;20468;-93
2022/04/20 15:31:31;;;;;;;24.33;22.63;;;;;;;;;;4974402;28;20458;-93
2022/04/20 15:33:58;;;;;;;23.93;22.53;;;;;;;;;;4975799;28;20462;-92
2022/04/20 15:36:28;;;;;;;24.07;22.57;;;;;;;;;;4975071;28;20447;-92
2022/04/20 15:38:56;;;;;;;23.47;22.07;;;;;;;;;;4974943;28;20483;-91
2022/04/20 15:41:25;;;;;;;24.10;22.40;;;;;;;;;;4975065;28;20811;-92
2022/04/20 15:43:53;;;;;;;25.00;23.40;;;;;;;;;;4975258;28;20505;-90
2022/04/20 15:46:20;;;;;;;25.00;23.33;;;;;;;;;;4975421;28;20484;-91
2022/04/20 15:48:47;;;;;;;24.43;23.03;;;;;;;;;;4973673;28;20513;-90
2022/04/20 15:51:15;;;;;;;24.80;23.10;;;;;;;;;;4975213;28;20450;-92
2022/04/20 15:53:42;;;;;;;25.90;24.40;;;;;;;;;;4975404;28;20516;-92
2022/04/20 16:01:41;;;;;;;25.40;23.67;;;;;;;;;;4975577;28;20401;-92
2022/04/20 16:04:09;;;;;;;26.03;24.47;;;;;;;;;;4976963;28;20439;-93
2022/04/20 16:06:36;;;;;;;26.07;24.57;;;;;;;;;;4975127;28;20861;-91
2022/04/20 16:09:03;;;;;;;25.10;23.70;;;;;;;;;;4976555;28;20451;-92
2022/04/20 16:11:31;;;;;;;26.00;24.40;;;;;;;;;;4979396;28;20454;-92
2022/04/20 16:14:00;;;;;;;25.43;23.93;;;;;;;;;;4976577;28;20548;-92
2022/04/20 16:16:28;;;;;;;25.10;23.53;;;;;;;;;;4978305;28;20517;-91
2022/04/20 16:18:56;;;;;;;24.80;23.30;;;;;;;;;;4978796;28;20881;-91
2022/04/20 16:21:23;;;;;;;25.13;23.53;;;;;;;;;;4978655;28;20425;-90
2022/04/20 16:23:50;;;;;;;24.80;23.30;;;;;;;;;;4978920;28;20505;-92
2022/04/20 16:26:18;;;;;;;24.93;23.33;;;;;;;;;;4977610;28;20758;-92
2022/04/20 16:28:45;;;;;;;25.53;24.03;;;;;;;;;;4979777;28;20429;-91
2022/04/20 16:31:14;;;;;;;24.97;23.40;;;;;;;;;;4978556;28;20470;-93
2022/04/20 16:33:41;;;;;;;24.73;23.23;;;;;;;;;;4978236;28;20935;-84
2022/04/20 16:36:09;;;;;;;25.03;23.63;;;;;;;;;;4978295;28;20414;-90
2022/04/20 16:38:36;;;;;;;25.10;23.50;;;;;;;;;;4979456;28;20572;-89
2022/04/20 16:41:04;;;;;;;24.67;23.07;;;;;;;;;;4978752;28;20441;-89